createdAt,value
2017-09-20T00:01:46.515Z,82.21
2017-09-20T00:04:13.354Z,84.76
2017-09-20T00:06:40.180Z,86.77
2017-09-20T00:09:07.017Z,83.83
2017-09-20T00:11:34.624Z,84.70
2017-09-20T00:14:02.255Z,87.67
2017-09-20T00:16:29.176Z,88.08
2017-09-20T00:18:55.984Z,87.49
2017-09-20T00:21:22.906Z,87.68
2017-09-20T00:23:49.756Z,87.01
2017-09-20T00:26:16.632Z,86.91
2017-09-20T00:28:43.510Z,88.72
2017-09-20T00:31:10.382Z,86.89
2017-09-20T00:33:37.280Z,84.02
2017-09-20T00:36:04.909Z,82.93
2017-09-20T00:38:31.802Z,85.55
2017-09-20T00:40:58.683Z,83.58
2017-09-20T00:43:26.317Z,86.10
2017-09-20T00:45:53.930Z,84.12
2017-09-20T00:48:20.788Z,82.92
2017-09-20T00:50:48.345Z,83.82
2017-09-20T00:53:15.251Z,87.36
2017-09-20T00:55:42.213Z,86.60
2017-09-20T00:58:09.241Z,86.62
2017-09-20T01:00:36.174Z,88.20
2017-09-20T01:03:03.190Z,89.06
2017-09-20T01:05:30.991Z,89.08
2017-09-20T01:07:58.218Z,89.12
2017-09-20T01:10:25.168Z,90.37
2017-09-20T01:12:52.363Z,89.34
2017-09-20T01:15:19.694Z,85.35
2017-09-20T01:17:46.796Z,83.89
2017-09-20T01:20:31.976Z,86.53
2017-09-20T01:23:17.120Z,88.44
2017-09-20T01:25:45.175Z,87.81
2017-09-20T01:28:12.785Z,88.78
2017-09-20T01:30:39.852Z,89.88
2017-09-20T01:33:07.051Z,89.14
2017-09-20T01:35:33.924Z,85.41
2017-09-20T01:38:00.940Z,84.00
2017-09-20T01:40:27.742Z,84.20
2017-09-20T01:42:54.722Z,86.46
2017-09-20T01:45:22.275Z,86.22
2017-09-20T01:47:49.059Z,87.31
2017-09-20T01:50:16.630Z,85.95
2017-09-20T01:52:43.491Z,83.86
2017-09-20T01:55:10.304Z,83.24
2017-09-20T01:57:37.178Z,85.08
2017-09-20T02:00:04.099Z,88.34
2017-09-20T02:02:30.950Z,89.65
2017-09-20T02:04:58.563Z,90.56
2017-09-20T02:07:25.408Z,89.87
2017-09-20T02:09:52.275Z,86.29
2017-09-20T02:12:19.092Z,84.23
2017-09-20T02:14:45.983Z,83.70
2017-09-20T02:17:13.565Z,84.98
2017-09-20T02:19:41.520Z,87.91
2017-09-20T02:22:08.363Z,89.23
2017-09-20T02:24:35.227Z,90.30
2017-09-20T02:27:02.083Z,88.70
2017-09-20T02:29:28.976Z,84.96
2017-09-20T02:31:55.828Z,88.32
2017-09-20T02:34:22.700Z,89.72
2017-09-20T02:36:50.328Z,90.41
2017-09-20T02:39:17.262Z,90.01
2017-09-20T02:41:44.857Z,88.88
2017-09-20T02:44:11.718Z,86.36
2017-09-20T02:46:38.564Z,84.69
2017-09-20T02:49:05.456Z,85.48
2017-09-20T02:51:32.402Z,88.20
2017-09-20T02:53:59.281Z,89.88
2017-09-20T02:56:26.151Z,86.92
2017-09-20T02:58:53.020Z,85.04
2017-09-20T03:01:19.885Z,87.58
2017-09-20T03:03:46.767Z,87.88
2017-09-20T03:06:13.599Z,89.39
2017-09-20T03:08:40.445Z,87.77
2017-09-20T03:11:07.309Z,85.41
2017-09-20T03:13:34.198Z,84.39
2017-09-20T03:16:01.036Z,84.19
2017-09-20T03:18:27.917Z,84.02
2017-09-20T03:20:54.769Z,85.16
2017-09-20T03:23:21.588Z,87.81
2017-09-20T03:25:48.417Z,88.50
2017-09-20T03:28:15.262Z,89.16
2017-09-20T03:30:42.111Z,90.50
2017-09-20T03:33:08.974Z,89.71
2017-09-20T03:35:35.828Z,86.99
2017-09-20T03:38:02.662Z,88.42
2017-09-20T03:40:29.502Z,86.81
2017-09-20T03:42:57.071Z,85.92
2017-09-20T03:45:24.722Z,85.32
2017-09-20T03:47:51.558Z,85.89
2017-09-20T03:50:18.392Z,86.37
2017-09-20T03:52:45.229Z,88.65
2017-09-20T03:55:12.064Z,86.14
2017-09-20T03:57:38.915Z,85.17
2017-09-20T04:00:05.782Z,84.89
2017-09-20T04:02:32.623Z,84.71
2017-09-20T04:04:59.462Z,86.24
2017-09-20T04:07:26.308Z,85.43
2017-09-20T04:09:53.898Z,84.95
2017-09-20T04:12:21.454Z,85.01
2017-09-20T04:14:48.299Z,86.16
2017-09-20T04:17:15.228Z,84.70
2017-09-20T04:19:42.048Z,84.56
2017-09-20T04:22:09.704Z,86.58
2017-09-20T04:24:36.566Z,87.50
2017-09-20T04:27:03.444Z,86.06
2017-09-20T04:29:31.039Z,85.90
2017-09-20T04:31:58.672Z,84.72
2017-09-20T04:34:25.533Z,84.43
2017-09-20T04:36:52.355Z,84.59
2017-09-20T04:39:19.189Z,86.41
2017-09-20T04:41:46.785Z,88.16
2017-09-20T04:44:13.620Z,87.00
2017-09-20T04:46:41.222Z,85.29
2017-09-20T04:49:08.061Z,84.79
2017-09-20T04:51:34.911Z,84.67
2017-09-20T04:54:01.795Z,85.83
2017-09-20T04:56:29.379Z,85.04
2017-09-20T04:58:56.947Z,85.72
2017-09-20T05:01:24.512Z,85.69
2017-09-20T05:03:51.423Z,87.14
2017-09-20T05:06:18.283Z,87.73
2017-09-20T05:08:45.179Z,86.52
2017-09-20T05:11:12.019Z,86.10
2017-09-20T05:13:38.852Z,85.08
2017-09-20T05:16:05.728Z,84.84
2017-09-20T05:18:32.563Z,84.83
2017-09-20T05:20:59.435Z,84.94
2017-09-20T05:23:26.291Z,85.43
2017-09-20T05:25:53.158Z,87.47
2017-09-20T05:28:20.013Z,89.09
2017-09-20T05:30:46.936Z,90.74
2017-09-20T05:33:13.861Z,90.74
2017-09-20T05:35:40.696Z,89.13
2017-09-20T05:38:08.315Z,87.35
2017-09-20T05:40:35.173Z,88.40
2017-09-20T05:43:02.076Z,86.63
2017-09-20T05:45:28.974Z,89.95
2017-09-20T05:47:55.866Z,86.23
2017-09-20T05:50:22.739Z,85.95
2017-09-20T05:52:49.581Z,86.12
2017-09-20T05:55:16.421Z,86.22
2017-09-20T05:57:43.283Z,85.94
2017-09-20T06:00:10.165Z,85.99
2017-09-20T06:02:37.003Z,86.04
2017-09-20T06:05:03.863Z,90.50
2017-09-20T06:07:30.773Z,89.81
2017-09-20T06:09:57.605Z,87.30
2017-09-20T06:12:24.507Z,86.80
2017-09-20T06:14:51.362Z,86.37
2017-09-20T06:17:19.465Z,87.11
2017-09-20T06:19:46.307Z,86.20
2017-09-20T06:22:13.177Z,85.94
2017-09-20T06:24:40.018Z,85.86
2017-09-20T06:27:06.842Z,85.81
2017-09-20T06:29:33.690Z,86.15
2017-09-20T06:32:01.304Z,88.24
2017-09-20T06:34:28.138Z,86.93
2017-09-20T06:36:55.713Z,86.28
2017-09-20T06:39:23.341Z,86.15
2017-09-20T06:41:50.181Z,86.04
2017-09-20T06:44:17.030Z,86.71
2017-09-20T06:46:43.839Z,87.87
2017-09-20T06:49:10.714Z,87.50
2017-09-20T06:51:37.566Z,87.49
2017-09-20T06:54:04.389Z,88.23
2017-09-20T06:56:31.245Z,87.82
2017-09-20T06:58:58.092Z,88.33
2017-09-20T07:01:25.003Z,87.60
2017-09-20T07:03:51.873Z,86.31
2017-09-20T07:06:18.707Z,85.89
2017-09-20T07:08:45.562Z,88.04
2017-09-20T07:11:12.461Z,90.08
2017-09-20T07:13:39.276Z,89.17
2017-09-20T07:16:06.183Z,87.37
2017-09-20T07:18:33.083Z,86.92
2017-09-20T07:20:59.947Z,89.14
2017-09-20T07:23:26.784Z,87.09
2017-09-20T07:25:54.387Z,86.10
2017-09-20T07:28:21.206Z,85.92
2017-09-20T07:30:48.067Z,85.95
2017-09-20T07:33:14.888Z,85.72
2017-09-20T07:35:41.715Z,85.80
2017-09-20T07:38:09.324Z,87.58
2017-09-20T07:40:36.168Z,88.85
2017-09-20T07:43:03.004Z,87.43
2017-09-20T07:45:30.573Z,87.19
2017-09-20T07:47:57.450Z,89.05
2017-09-20T07:50:25.012Z,85.61
2017-09-20T07:52:51.839Z,88.10
2017-09-20T07:55:18.662Z,87.94
2017-09-20T07:57:46.239Z,87.27
2017-09-20T08:00:13.826Z,86.81
2017-09-20T08:02:40.676Z,86.74
2017-09-20T08:05:07.527Z,86.08
2017-09-20T08:07:35.109Z,88.58
2017-09-20T08:10:02.718Z,87.92
2017-09-20T08:12:29.600Z,86.25
2017-09-20T08:14:56.516Z,85.87
2017-09-20T08:17:24.638Z,86.77
2017-09-20T08:19:51.530Z,88.20
2017-09-20T08:22:18.426Z,86.91
2017-09-20T08:24:46.015Z,86.29
2017-09-20T08:27:12.877Z,87.22
2017-09-20T08:29:39.715Z,88.02
2017-09-20T08:32:07.308Z,86.59
2017-09-20T08:34:34.960Z,86.44
2017-09-20T08:37:01.842Z,86.23
2017-09-20T08:39:29.498Z,87.32
2017-09-20T08:41:56.363Z,86.64
2017-09-20T08:44:23.227Z,85.97
2017-09-20T08:46:50.065Z,86.94
2017-09-20T08:49:16.901Z,86.79
2017-09-20T08:51:43.744Z,85.68
2017-09-20T08:54:10.597Z,85.85
2017-09-20T08:56:38.179Z,85.72
2017-09-20T08:59:05.064Z,85.69
2017-09-20T09:01:31.941Z,85.55
2017-09-20T09:03:58.798Z,86.05
2017-09-20T09:06:25.645Z,85.04
2017-09-20T09:08:52.465Z,85.66
2017-09-20T09:11:20.083Z,85.34
2017-09-20T09:13:46.972Z,85.06
2017-09-20T09:16:13.848Z,85.36
2017-09-20T09:18:40.707Z,84.75
2017-09-20T09:21:07.555Z,84.55
2017-09-20T09:23:34.376Z,84.71
2017-09-20T09:26:01.254Z,85.16
2017-09-20T09:28:28.103Z,84.33
2017-09-20T09:30:54.950Z,84.31
2017-09-20T09:33:22.543Z,85.15
2017-09-20T09:35:49.433Z,84.81
2017-09-20T09:38:16.286Z,84.80
2017-09-20T09:40:43.105Z,84.58
2017-09-20T09:43:10.676Z,84.45
2017-09-20T09:45:38.353Z,84.11
2017-09-20T09:48:05.910Z,85.14
2017-09-20T09:50:32.743Z,84.77
2017-09-20T09:52:59.595Z,84.39
2017-09-20T09:55:26.441Z,84.33
2017-09-20T09:57:53.328Z,84.39
2017-09-20T10:00:20.156Z,83.98
2017-09-20T10:02:47.808Z,83.88
2017-09-20T10:05:14.645Z,83.65
2017-09-20T10:07:41.529Z,83.08
2017-09-20T10:10:08.419Z,81.98
2017-09-20T10:12:36.009Z,81.87
2017-09-20T10:15:02.883Z,81.01
2017-09-20T10:17:29.794Z,81.72
2017-09-20T10:19:56.658Z,81.51
2017-09-20T10:22:23.538Z,80.84
2017-09-20T10:24:51.122Z,80.51
2017-09-20T10:27:18.742Z,80.67
2017-09-20T10:29:45.625Z,79.93
2017-09-20T10:32:12.459Z,79.61
2017-09-20T10:34:39.293Z,80.04
2017-09-20T10:37:06.143Z,79.17
2017-09-20T10:39:33.722Z,79.77
2017-09-20T10:42:01.305Z,78.69
2017-09-20T10:44:28.900Z,78.16
2017-09-20T10:46:55.750Z,77.35
2017-09-20T10:49:22.571Z,76.35
2017-09-20T10:51:50.024Z,76.72
2017-09-20T10:54:16.859Z,76.92
2017-09-20T10:56:45.094Z,75.42
2017-09-20T10:59:11.953Z,75.29
2017-09-20T11:01:38.794Z,73.47
2017-09-20T11:04:05.662Z,73.42
2017-09-20T11:06:32.479Z,70.83
2017-09-20T11:08:59.403Z,73.21
2017-09-20T11:11:26.245Z,71.25
2017-09-20T11:13:53.164Z,70.49
2017-09-20T11:16:20.722Z,70.32
2017-09-20T11:18:48.294Z,67.74
2017-09-20T11:21:15.107Z,69.96
2017-09-20T11:23:41.928Z,69.57
2017-09-20T11:26:09.520Z,70.19
2017-09-20T11:28:36.352Z,69.08
2017-09-20T11:31:03.199Z,69.10
2017-09-20T11:33:30.058Z,69.64
2017-09-20T11:35:56.951Z,67.97
2017-09-20T11:38:24.522Z,67.55
2017-09-20T11:40:51.348Z,66.60
2017-09-20T11:43:18.217Z,67.23
2017-09-20T11:45:45.076Z,65.88
2017-09-20T11:48:12.037Z,66.24
2017-09-20T11:50:38.878Z,65.66
2017-09-20T11:53:05.828Z,64.90
2017-09-20T11:55:32.678Z,65.10
2017-09-20T11:57:59.555Z,63.98
2017-09-20T12:00:27.156Z,63.59
2017-09-20T12:02:53.999Z,63.05
2017-09-20T12:05:20.861Z,61.80
2017-09-20T12:07:47.720Z,62.53
2017-09-20T12:10:14.540Z,62.22
2017-09-20T12:12:41.384Z,60.83
2017-09-20T12:15:08.201Z,59.70
2017-09-20T12:17:35.792Z,58.45
2017-09-20T12:20:03.379Z,58.82
2017-09-20T12:22:30.249Z,59.42
2017-09-20T12:24:57.067Z,59.87
2017-09-20T12:27:23.892Z,59.47
2017-09-20T12:29:50.718Z,59.16
2017-09-20T12:32:17.552Z,60.04
2017-09-20T12:34:44.384Z,57.30
2017-09-20T12:37:11.242Z,56.51
2017-09-20T12:39:38.076Z,57.03
2017-09-20T12:42:04.906Z,56.97
2017-09-20T12:44:31.792Z,56.13
2017-09-20T12:47:00.325Z,54.67
2017-09-20T12:49:27.249Z,54.75
2017-09-20T12:51:58.716Z,53.88
2017-09-20T12:54:25.590Z,53.81
2017-09-20T12:56:52.432Z,53.10
2017-09-20T12:59:19.294Z,51.52
2017-09-20T13:01:46.190Z,51.17
2017-09-20T13:04:13.011Z,51.78
2017-09-20T13:06:39.882Z,53.12
2017-09-20T13:09:06.761Z,50.91
2017-09-20T13:11:33.628Z,50.77
2017-09-20T13:14:00.489Z,49.53
2017-09-20T13:16:27.343Z,50.81
2017-09-20T13:18:54.178Z,49.91
2017-09-20T13:21:21.065Z,50.99
2017-09-20T13:23:47.938Z,47.60
2017-09-20T13:26:14.844Z,47.23
2017-09-20T13:28:41.694Z,49.44
2017-09-20T13:31:09.248Z,48.88
2017-09-20T13:33:36.124Z,48.98
2017-09-20T13:36:03.005Z,48.78
2017-09-20T13:38:29.871Z,47.78
2017-09-20T13:40:56.718Z,46.80
2017-09-20T13:43:24.315Z,46.97
2017-09-20T13:45:51.196Z,48.10
2017-09-20T13:48:18.018Z,48.02
2017-09-20T13:50:45.616Z,47.64
2017-09-20T13:53:12.498Z,47.52
2017-09-20T13:55:39.350Z,48.09
2017-09-20T13:58:06.261Z,49.26
2017-09-20T14:00:35.236Z,50.13
2017-09-20T14:03:04.101Z,49.85
2017-09-20T14:05:32.818Z,50.91
2017-09-20T14:08:02.417Z,50.62
2017-09-20T14:10:29.927Z,51.03
2017-09-20T14:12:58.694Z,49.55
2017-09-20T14:15:25.630Z,48.99
2017-09-20T14:17:52.447Z,49.31
2017-09-20T14:20:19.302Z,49.15
2017-09-20T14:22:46.915Z,49.64
2017-09-20T14:25:13.801Z,49.55
2017-09-20T14:27:40.687Z,48.79
2017-09-20T14:30:08.266Z,48.74
2017-09-20T14:32:35.871Z,48.93
2017-09-20T14:35:02.747Z,50.33
2017-09-20T14:37:29.718Z,50.20
2017-09-20T14:39:56.542Z,51.05
2017-09-20T14:42:25.305Z,50.68
2017-09-20T14:44:52.925Z,51.39
2017-09-20T14:47:20.541Z,50.04
2017-09-20T14:49:47.385Z,51.03
2017-09-20T14:52:14.233Z,49.88
2017-09-20T14:54:41.826Z,49.58
2017-09-20T14:57:09.726Z,49.71
2017-09-20T14:59:36.617Z,48.33
2017-09-20T15:02:03.474Z,48.83
2017-09-20T15:04:30.377Z,49.83
2017-09-20T15:06:57.968Z,51.21
2017-09-20T15:09:24.817Z,50.81
2017-09-20T15:11:52.389Z,51.28
2017-09-20T15:14:19.972Z,53.05
2017-09-20T15:16:47.537Z,52.33
2017-09-20T15:19:15.119Z,53.23
2017-09-20T15:21:42.703Z,52.78
2017-09-20T15:24:09.554Z,54.97
2017-09-20T15:26:36.403Z,55.29
2017-09-20T15:29:03.271Z,54.85
2017-09-20T15:31:30.143Z,54.42
2017-09-20T15:33:57.735Z,54.81
2017-09-20T15:36:25.336Z,54.65
2017-09-20T15:38:52.193Z,55.50
2017-09-20T15:41:19.024Z,55.54
2017-09-20T15:43:46.614Z,56.12
2017-09-20T15:46:14.209Z,56.33
2017-09-20T15:48:41.123Z,56.51
2017-09-20T15:51:08.752Z,55.98
2017-09-20T15:53:35.631Z,57.51
2017-09-20T15:56:02.498Z,56.92
2017-09-20T15:58:29.332Z,56.04
2017-09-20T16:00:56.167Z,56.27
2017-09-20T16:03:23.783Z,55.50
2017-09-20T16:05:50.603Z,55.81
2017-09-20T16:08:18.226Z,55.66
2017-09-20T16:10:45.121Z,55.89
2017-09-20T16:13:11.992Z,56.50
2017-09-20T16:15:38.908Z,57.85
2017-09-20T16:18:06.491Z,57.19
2017-09-20T16:20:33.336Z,56.95
2017-09-20T16:23:00.159Z,58.44
2017-09-20T16:25:27.012Z,57.65
2017-09-20T16:27:53.921Z,58.09
2017-09-20T16:30:20.778Z,57.99
2017-09-20T16:32:47.638Z,58.11
2017-09-20T16:35:14.504Z,59.30
2017-09-20T16:37:41.382Z,58.66
2017-09-20T16:40:08.264Z,58.86
2017-09-20T16:42:35.134Z,59.12
2017-09-20T16:45:02.010Z,59.73
2017-09-20T16:47:28.917Z,59.66
2017-09-20T16:49:56.616Z,60.96
2017-09-20T16:52:23.476Z,61.96
2017-09-20T16:54:51.036Z,60.55
2017-09-20T16:57:17.944Z,60.75
2017-09-20T16:59:44.807Z,60.89
2017-09-20T17:02:11.973Z,61.82
2017-09-20T17:04:38.845Z,61.63
2017-09-20T17:07:05.731Z,62.15
2017-09-20T17:09:33.530Z,62.47
2017-09-20T17:12:00.385Z,63.09
2017-09-20T17:14:27.289Z,63.08
2017-09-20T17:16:54.141Z,63.31
2017-09-20T17:19:21.011Z,63.91
2017-09-20T17:21:47.853Z,64.69
2017-09-20T17:24:14.718Z,64.63
2017-09-20T17:26:41.556Z,67.40
2017-09-20T17:29:08.453Z,65.77
2017-09-20T17:31:35.401Z,65.65
2017-09-20T17:34:02.324Z,65.96
2017-09-20T17:36:29.992Z,66.05
2017-09-20T17:38:56.833Z,66.22
2017-09-20T17:41:23.709Z,65.41
2017-09-20T17:43:50.585Z,67.29
2017-09-20T17:46:17.464Z,69.75
2017-09-20T17:48:45.157Z,69.95
2017-09-20T17:51:12.114Z,69.77
2017-09-20T17:53:39.740Z,71.59
2017-09-20T17:56:06.664Z,74.56
2017-09-20T17:58:33.563Z,71.70
2017-09-20T18:01:00.452Z,70.20
2017-09-20T18:03:27.325Z,69.67
2017-09-20T18:05:55.562Z,69.37
2017-09-20T18:08:22.470Z,70.67
2017-09-20T18:10:49.420Z,73.70
2017-09-20T18:13:16.290Z,73.73
2017-09-20T18:15:43.152Z,76.28
2017-09-20T18:18:10.011Z,77.49
2017-09-20T18:20:37.648Z,77.76
2017-09-20T18:23:04.551Z,73.91
2017-09-20T18:25:31.443Z,72.21
2017-09-20T18:27:59.094Z,72.58
2017-09-20T18:30:25.944Z,75.01
2017-09-20T18:32:52.784Z,73.79
2017-09-20T18:35:19.687Z,72.24
2017-09-20T18:37:46.566Z,73.88
2017-09-20T18:40:14.174Z,72.20
2017-09-20T18:42:41.042Z,71.57
2017-09-20T18:45:08.056Z,76.15
2017-09-20T18:47:34.901Z,78.31
2017-09-20T18:50:01.875Z,79.55
2017-09-20T18:52:28.850Z,78.54
2017-09-20T18:54:55.781Z,77.36
2017-09-20T18:57:22.771Z,78.58
2017-09-20T18:59:49.656Z,77.09
2017-09-20T19:02:17.344Z,75.97
2017-09-20T19:04:44.191Z,74.27
2017-09-20T19:07:12.183Z,74.79
2017-09-20T19:09:39.134Z,76.02
2017-09-20T19:12:06.131Z,77.66
2017-09-20T19:14:32.977Z,75.15
2017-09-20T19:17:00.532Z,74.57
2017-09-20T19:19:27.375Z,74.86
2017-09-20T19:21:54.265Z,78.47
2017-09-20T19:24:21.898Z,78.85
2017-09-20T19:26:48.823Z,79.47
2017-09-20T19:29:15.774Z,77.01
2017-09-20T19:31:43.504Z,76.47
2017-09-20T19:34:10.603Z,75.13
2017-09-20T19:36:37.533Z,75.56
2017-09-20T19:39:04.453Z,79.51
2017-09-20T19:41:32.071Z,81.82
2017-09-20T19:43:58.988Z,82.27
2017-09-20T19:46:26.710Z,83.03
2017-09-20T19:48:53.825Z,82.72
2017-09-20T19:51:20.756Z,80.75
2017-09-20T19:53:49.709Z,81.22
2017-09-20T19:56:17.365Z,80.27
2017-09-20T19:58:44.212Z,77.81
2017-09-20T20:01:11.178Z,77.17
2017-09-20T20:03:38.035Z,76.63
2017-09-20T20:06:04.882Z,76.67
2017-09-20T20:08:32.500Z,76.62
2017-09-20T20:10:59.373Z,76.56
2017-09-20T20:13:26.274Z,76.84
2017-09-20T20:15:53.156Z,75.74
2017-09-20T20:18:20.034Z,76.10
2017-09-20T20:20:46.888Z,78.82
2017-09-20T20:23:13.815Z,81.14
2017-09-20T20:25:40.696Z,81.41
2017-09-20T20:28:07.519Z,81.82
2017-09-20T20:30:35.150Z,82.58
2017-09-20T20:33:02.025Z,84.27
2017-09-20T20:35:28.852Z,84.33
2017-09-20T20:37:55.775Z,83.44
2017-09-20T20:40:23.436Z,82.84
2017-09-20T20:42:50.259Z,81.43
2017-09-20T20:45:17.060Z,82.25
2017-09-20T20:47:43.889Z,80.12
2017-09-20T20:50:10.765Z,78.97
2017-09-20T20:52:37.584Z,78.60
2017-09-20T20:55:04.457Z,78.48
2017-09-20T20:57:31.348Z,78.61
2017-09-20T20:59:58.211Z,82.16
2017-09-20T21:02:25.032Z,82.11
2017-09-20T21:04:51.854Z,83.12
2017-09-20T21:07:18.694Z,80.68
2017-09-20T21:09:45.549Z,81.07
2017-09-20T21:12:12.442Z,82.86
2017-09-20T21:14:39.296Z,84.45
2017-09-20T21:17:06.139Z,85.30
2017-09-20T21:19:33.004Z,85.35
2017-09-20T21:21:59.842Z,85.85
2017-09-20T21:24:26.695Z,85.32
2017-09-20T21:26:53.550Z,84.44
2017-09-20T21:29:20.504Z,84.55
2017-09-20T21:31:47.348Z,86.00
2017-09-20T21:34:14.970Z,81.98
2017-09-20T21:36:41.788Z,83.31
2017-09-20T21:39:09.383Z,83.32
2017-09-20T21:41:36.263Z,83.40
2017-09-20T21:44:03.138Z,82.13
2017-09-20T21:46:30.004Z,82.13
2017-09-20T21:48:56.866Z,81.74
2017-09-20T21:51:23.770Z,80.84
2017-09-20T21:53:51.429Z,81.19
2017-09-20T21:56:18.316Z,82.09
2017-09-20T21:58:45.936Z,83.46
2017-09-20T22:01:12.772Z,84.49
2017-09-20T22:03:39.651Z,85.20
2017-09-20T22:06:06.486Z,82.10
2017-09-20T22:08:34.119Z,84.41
2017-09-20T22:11:00.964Z,84.87
2017-09-20T22:13:28.597Z,84.99
2017-09-20T22:16:14.384Z,84.30
2017-09-20T22:19:00.158Z,83.48
2017-09-20T22:21:45.083Z,83.90
2017-09-20T22:24:30.120Z,84.87
2017-09-20T22:26:56.569Z,82.79
2017-09-20T22:29:23.439Z,80.67
2017-09-20T22:31:50.289Z,82.41
2017-09-20T22:34:17.191Z,81.50
2017-09-20T22:36:44.015Z,83.35
2017-09-20T22:39:10.850Z,85.31
2017-09-20T22:41:37.661Z,84.24
2017-09-20T22:44:05.340Z,84.82
2017-09-20T22:46:32.955Z,85.55
2017-09-20T22:48:59.795Z,86.48
2017-09-20T22:51:26.624Z,85.71
2017-09-20T22:53:53.463Z,85.19
2017-09-20T22:56:21.365Z,82.38
2017-09-20T22:58:48.242Z,80.98
2017-09-20T23:01:15.074Z,81.24
2017-09-20T23:03:42.851Z,84.37
2017-09-20T23:06:10.463Z,85.22
2017-09-20T23:08:38.105Z,86.85
2017-09-20T23:11:05.782Z,87.42
2017-09-20T23:13:32.631Z,88.05
2017-09-20T23:15:59.493Z,87.95
2017-09-20T23:18:26.379Z,88.27
2017-09-20T23:20:53.196Z,88.22
2017-09-20T23:23:20.103Z,88.29
2017-09-20T23:25:46.938Z,86.73
2017-09-20T23:28:13.866Z,86.72
2017-09-20T23:30:40.801Z,86.55
2017-09-20T23:33:08.648Z,85.75
2017-09-20T23:35:35.640Z,87.05
2017-09-20T23:38:02.889Z,85.74
2017-09-20T23:40:30.558Z,83.98
2017-09-20T23:42:57.389Z,82.19
2017-09-20T23:45:24.979Z,80.92
2017-09-20T23:47:52.560Z,81.16
2017-09-20T23:50:19.383Z,80.52
2017-09-20T23:52:46.297Z,80.59
2017-09-20T23:55:13.145Z,82.55
2017-09-20T23:57:40.011Z,84.83
